Time;durP1;ratioP1;P1;durP2;ratioP2;P2;SDS_P1;SDS_P2;PMS_P1;PMS_P2;Temp;Humidity;BMP_temperature;BMP_pressure;BME280_temperature;BME280_humidity;BME280_pressure;Samples;Min_cycle;Max_cycle;Signal;HPM_P1;HPM_P2
2021/09/10 00:00:38;;;;;;;18.27;13.70;;;;;;;16.74;77.62;98351.78;4186043;28;20032;-71
2021/09/10 00:02:38;;;;;;;17.77;13.52;;;;;;;16.77;77.85;98350.94;4186654;28;20451;-71
2021/09/10 00:04:39;;;;;;;16.40;13.75;;;;;;;16.80;77.93;98354.91;4186809;28;20089;-71
2021/09/10 00:06:39;;;;;;;18.65;14.98;;;;;;;16.80;78.01;98352.91;4186230;28;20039;-71
2021/09/10 00:08:40;;;;;;;18.55;15.00;;;;;;;16.84;78.46;98358.41;4185799;28;20165;-71
2021/09/10 00:10:40;;;;;;;17.75;14.52;;;;;;;16.82;78.23;98355.25;4186126;28;20475;-71
2021/09/10 00:12:40;;;;;;;19.88;15.60;;;;;;;16.81;77.84;98353.69;4185990;28;20052;-71
2021/09/10 00:14:41;;;;;;;18.45;15.55;;;;;;;16.71;79.05;98352.63;4185949;28;20047;-71
2021/09/10 00:16:41;;;;;;;19.30;16.17;;;;;;;16.74;80.28;98364.97;4185314;28;20444;-71
2021/09/10 00:18:41;;;;;;;20.35;15.27;;;;;;;16.71;81.04;98357.41;4186733;28;20079;-71
2021/09/10 00:20:42;;;;;;;26.15;17.00;;;;;;;16.66;81.37;98360.66;4186518;28;20392;-71
2021/09/10 00:22:42;;;;;;;18.08;14.93;;;;;;;16.61;81.49;98359.13;4186216;28;20052;-71
2021/09/10 00:24:42;;;;;;;18.55;16.52;;;;;;;16.53;81.81;98360.44;4185583;28;20040;-71
2021/09/10 00:26:43;;;;;;;19.67;16.20;;;;;;;16.50;82.04;98359.28;4186028;28;20051;-71
2021/09/10 00:28:43;;;;;;;19.00;14.93;;;;;;;16.45;81.82;98348.56;4186292;28;20044;-71
2021/09/10 00:30:44;;;;;;;18.58;14.82;;;;;;;16.45;80.44;98353.38;4185153;28;20071;-70
2021/09/10 00:32:44;;;;;;;20.08;14.30;;;;;;;16.48;80.55;98360.94;4184037;28;20118;-71
2021/09/10 00:34:44;;;;;;;19.67;14.80;;;;;;;16.46;81.04;98364.13;4186227;28;20059;-71
2021/09/10 00:36:46;;;;;;;18.83;14.40;;;;;;;16.44;79.76;98354.59;4185143;28;20041;-71
2021/09/10 00:38:46;;;;;;;18.02;14.93;;;;;;;16.44;81.06;98355.38;4185739;28;20032;-71
2021/09/10 00:40:46;;;;;;;17.67;14.88;;;;;;;16.37;81.04;98343.50;4185699;28;20500;-71
2021/09/10 00:42:47;;;;;;;21.40;16.17;;;;;;;16.39;82.91;98353.06;4186492;28;20044;-71
2021/09/10 00:44:47;;;;;;;18.73;14.85;;;;;;;16.41;82.72;98352.66;4184908;28;20037;-71
2021/09/10 00:46:47;;;;;;;16.80;14.55;;;;;;;16.39;81.85;98349.50;4185310;28;20040;-71
2021/09/10 00:48:48;;;;;;;18.40;15.60;;;;;;;16.38;82.05;98343.09;4186639;28;20033;-71
2021/09/10 00:50:48;;;;;;;17.75;13.98;;;;;;;16.38;81.94;98350.66;4184561;28;20048;-71
2021/09/10 00:52:49;;;;;;;16.40;14.02;;;;;;;16.28;81.18;98332.84;4184330;28;20157;-71
2021/09/10 00:54:49;;;;;;;18.30;13.82;;;;;;;16.34;80.84;98335.97;4186386;28;20040;-71
2021/09/10 00:56:49;;;;;;;17.58;13.82;;;;;;;16.33;80.93;98335.19;4185976;28;20432;-71
2021/09/10 00:58:50;;;;;;;23.38;16.42;;;;;;;16.30;82.41;98330.44;4184903;28;20040;-71
2021/09/10 01:00:51;;;;;;;16.73;13.60;;;;;;;16.32;80.55;98338.41;4184464;28;20477;-71
2021/09/10 01:02:51;;;;;;;21.55;15.50;;;;;;;16.33;81.76;98342.78;4168882;28;20045;-71
2021/09/10 01:04:51;;;;;;;16.25;14.32;;;;;;;16.32;80.59;98341.22;4185945;28;20439;-71
2021/09/10 01:06:52;;;;;;;14.90;13.18;;;;;;;16.31;80.53;98336.84;4167179;28;20053;-71
2021/09/10 01:08:53;;;;;;;14.55;11.40;;;;;;;16.23;80.54;98331.34;4186115;28;20382;-71
2021/09/10 01:10:53;;;;;;;16.85;13.55;;;;;;;16.21;79.94;98338.53;4167154;28;20044;-71
2021/09/10 01:12:54;;;;;;;18.67;13.73;;;;;;;16.26;79.60;98338.09;4184646;28;20387;-71
2021/09/10 01:14:55;;;;;;;19.35;13.88;;;;;;;16.22;80.60;98349.31;4185248;28;20051;-71
2021/09/10 01:16:55;;;;;;;15.27;12.95;;;;;;;16.21;80.75;98349.69;4184919;28;20090;-71
2021/09/10 01:18:56;;;;;;;19.92;14.77;;;;;;;16.16;81.21;98342.59;4168186;28;20040;-71
2021/09/10 01:20:56;;;;;;;21.00;14.32;;;;;;;16.19;80.74;98352.91;4185319;28;20296;-71
2021/09/10 01:22:56;;;;;;;18.35;14.52;;;;;;;16.17;81.04;98351.75;4186653;28;20454;-71
2021/09/10 01:25:13;;;;;;;17.92;13.63;;;;;;;16.10;80.95;98349.84;4183830;28;20538;-71
2021/09/10 01:27:14;;;;;;;17.13;14.38;;;;;;;16.07;80.50;98349.91;4184357;28;20044;-71
2021/09/10 01:29:14;;;;;;;17.30;14.85;;;;;;;15.98;81.50;98354.00;4185851;28;20472;-71
2021/09/10 01:31:14;;;;;;;19.25;13.95;;;;;;;15.90;81.01;98349.69;4183934;28;20106;-71
2021/09/10 01:33:15;;;;;;;20.30;14.02;;;;;;;15.90;81.94;98358.06;4185094;28;20055;-71
2021/09/10 01:35:15;;;;;;;20.08;16.30;;;;;;;15.85;82.34;98354.94;4185697;28;20823;-71
2021/09/10 01:37:16;;;;;;;15.35;13.30;;;;;;;15.80;81.74;98352.59;4185355;28;20071;-71
2021/09/10 01:39:16;;;;;;;21.35;14.32;;;;;;;15.77;81.98;98353.44;4185171;28;20040;-71
2021/09/10 01:41:17;;;;;;;19.75;15.60;;;;;;;15.82;82.26;98356.56;4184231;28;20045;-71
2021/09/10 01:43:17;;;;;;;21.25;16.25;;;;;;;15.84;81.88;98353.38;4183964;28;20060;-71
2021/09/10 01:45:17;;;;;;;19.75;16.25;;;;;;;15.85;82.82;98357.72;4186213;28;20040;-71
2021/09/10 01:47:18;;;;;;;23.02;14.00;;;;;;;15.81;82.32;98348.63;4185842;28;20048;-71
2021/09/10 01:49:18;;;;;;;17.60;14.10;;;;;;;15.82;81.84;98361.38;4187372;28;20048;-71
2021/09/10 01:51:27;;;;;;;18.42;13.10;;;;;;;15.81;82.65;98352.19;4187692;28;20055;-71
2021/09/10 01:53:31;;;;;;;15.70;13.75;;;;;;;15.78;81.50;98339.06;4188183;28;20323;-71
2021/09/10 01:55:32;;;;;;;19.08;16.08;;;;;;;15.79;83.40;98345.44;4187099;28;20392;-71
2021/09/10 01:57:33;;;;;;;17.50;13.23;;;;;;;15.79;83.49;98357.38;4188915;28;20045;-71
2021/09/10 01:59:33;;;;;;;20.88;15.75;;;;;;;15.78;84.00;98355.03;4188878;28;20528;-71
2021/09/10 02:01:34;;;;;;;17.73;15.52;;;;;;;15.77;83.87;98350.66;4186348;28;20284;-71
2021/09/10 02:03:35;;;;;;;16.95;14.20;;;;;;;15.77;83.05;98354.22;4188578;28;20044;-71
2021/09/10 02:05:35;;;;;;;14.52;11.13;;;;;;;15.71;83.28;98355.88;4188744;28;20327;-71
2021/09/10 02:07:36;;;;;;;16.00;14.05;;;;;;;15.66;83.58;98357.16;4188841;28;20044;-71
2021/09/10 02:09:36;;;;;;;19.83;15.45;;;;;;;15.67;84.24;98352.34;4188170;28;20044;-71
2021/09/10 02:11:37;;;;;;;15.93;13.45;;;;;;;15.63;83.58;98363.53;4187722;28;20365;-71
2021/09/10 02:13:37;;;;;;;16.85;14.07;;;;;;;15.66;82.11;98357.16;4185775;28;20037;-71
2021/09/10 02:15:38;;;;;;;17.23;14.35;;;;;;;15.64;83.44;98356.78;4188362;28;20572;-71
2021/09/10 02:17:38;;;;;;;17.65;14.90;;;;;;;15.61;83.24;98362.38;4188326;28;20036;-71
2021/09/10 02:19:39;;;;;;;19.77;14.65;;;;;;;15.58;83.14;98358.41;4188649;28;20044;-71
2021/09/10 02:21:39;;;;;;;18.85;15.48;;;;;;;15.54;82.91;98351.25;4187080;28;20219;-71
2021/09/10 02:23:40;;;;;;;19.35;14.68;;;;;;;15.52;82.91;98348.88;4188461;28;20105;-71
2021/09/10 02:25:40;;;;;;;18.70;14.82;;;;;;;15.52;83.13;98351.69;4188787;28;20047;-71
2021/09/10 02:27:40;;;;;;;21.98;16.23;;;;;;;15.49;83.00;98351.72;4187553;28;20078;-71
2021/09/10 02:29:41;;;;;;;17.83;14.57;;;;;;;15.47;83.52;98349.31;4187942;28;20388;-71
2021/09/10 02:31:41;;;;;;;15.70;13.95;;;;;;;15.46;82.19;98351.31;4187830;28;20325;-71
2021/09/10 02:33:41;;;;;;;19.05;15.02;;;;;;;15.52;82.18;98350.88;4187505;28;20051;-71
2021/09/10 02:35:42;;;;;;;16.30;13.13;;;;;;;15.51;82.93;98350.09;4187742;28;20045;-71
2021/09/10 02:37:42;;;;;;;23.27;16.98;;;;;;;15.52;83.33;98351.69;4187361;28;20040;-71
2021/09/10 02:39:43;;;;;;;18.38;14.70;;;;;;;15.52;83.49;98348.88;4187076;28;20075;-71
2021/09/10 02:41:43;;;;;;;17.08;13.90;;;;;;;15.57;83.13;98347.66;4186666;28;20337;-71
2021/09/10 02:43:43;;;;;;;17.42;13.80;;;;;;;15.58;83.21;98350.03;4187950;28;20121;-71
2021/09/10 02:45:44;;;;;;;17.85;14.07;;;;;;;15.59;83.33;98337.66;4187470;28;20055;-71
2021/09/10 02:47:44;;;;;;;16.63;13.07;;;;;;;15.58;83.37;98335.31;4186583;28;20069;-71
2021/09/10 02:49:44;;;;;;;23.58;15.50;;;;;;;15.61;83.84;98343.63;4188351;28;20044;-71
2021/09/10 02:51:45;;;;;;;21.42;16.02;;;;;;;15.57;84.75;98351.25;4187000;28;20440;-71
2021/09/10 02:53:45;;;;;;;18.50;14.15;;;;;;;15.55;83.73;98350.06;4186880;28;20106;-71
2021/09/10 02:55:45;;;;;;;22.33;15.65;;;;;;;15.58;83.58;98350.03;4187291;28;20045;-71
2021/09/10 02:57:46;;;;;;;15.30;12.48;;;;;;;15.59;83.98;98348.03;4186414;28;20048;-71
2021/09/10 02:59:46;;;;;;;18.45;15.48;;;;;;;15.58;84.51;98347.25;4187870;28;20412;-71
2021/09/10 03:01:47;;;;;;;18.85;15.45;;;;;;;15.57;84.05;98351.25;4187020;28;20055;-71
2021/09/10 03:03:48;;;;;;;16.17;13.80;;;;;;;15.58;83.88;98349.25;4186413;28;20136;-71
2021/09/10 03:05:48;;;;;;;18.13;14.70;;;;;;;15.59;83.70;98348.81;4188350;28;20049;-71
2021/09/10 03:07:48;;;;;;;20.20;16.35;;;;;;;15.57;85.08;98356.81;4186751;28;20056;-71
2021/09/10 03:09:49;;;;;;;17.15;13.68;;;;;;;15.57;84.15;98351.25;4187704;28;20045;-71
2021/09/10 03:11:49;;;;;;;16.67;14.25;;;;;;;15.55;84.09;98353.63;4186417;28;20056;-71
2021/09/10 03:13:50;;;;;;;17.25;14.27;;;;;;;15.55;83.81;98352.84;4185898;28;20440;-71
2021/09/10 03:15:50;;;;;;;17.13;12.98;;;;;;;15.53;84.35;98358.84;4186957;28;20044;-71
2021/09/10 03:17:50;;;;;;;17.67;15.63;;;;;;;15.52;84.72;98351.69;4187669;28;20525;-71
2021/09/10 03:19:51;;;;;;;19.73;15.20;;;;;;;15.53;85.29;98356.03;4184934;28;20199;-71
2021/09/10 03:21:51;;;;;;;16.75;14.00;;;;;;;15.52;85.70;98348.09;4183492;28;20051;-71
2021/09/10 03:23:52;;;;;;;19.00;15.57;;;;;;;15.49;85.64;98340.56;4185541;28;20040;-71
2021/09/10 03:25:52;;;;;;;20.33;15.45;;;;;;;15.52;85.63;98340.53;4185620;28;20376;-71
2021/09/10 03:27:53;;;;;;;19.65;14.95;;;;;;;15.57;86.15;98342.88;4184301;28;20053;-71
2021/09/10 03:29:54;;;;;;;18.77;14.18;;;;;;;15.57;85.89;98347.66;4184629;28;20544;-71
2021/09/10 03:31:54;;;;;;;18.45;15.48;;;;;;;15.56;85.96;98346.88;4183844;28;20403;-71
2021/09/10 03:33:54;;;;;;;18.98;16.08;;;;;;;15.57;85.84;98342.88;4185378;28;20526;-71
2021/09/10 03:35:55;;;;;;;18.52;13.85;;;;;;;15.54;84.78;98342.91;4183803;28;20114;-71
2021/09/10 03:37:56;;;;;;;18.58;14.23;;;;;;;15.55;83.86;98338.91;4184137;28;20226;-71
2021/09/10 03:39:56;;;;;;;14.30;12.80;;;;;;;15.54;83.88;98349.25;4185641;28;20447;-71
2021/09/10 03:41:57;;;;;;;19.67;14.50;;;;;;;15.48;84.68;98345.38;4182072;28;20068;-71
2021/09/10 03:43:57;;;;;;;18.75;13.63;;;;;;;15.46;83.37;98339.38;4183291;28;20755;-71
2021/09/10 03:45:58;;;;;;;15.93;13.88;;;;;;;15.41;82.52;98332.28;4185091;28;20041;-71
2021/09/10 03:47:58;;;;;;;17.85;14.68;;;;;;;15.38;83.38;98335.88;4182964;28;20086;-71
2021/09/10 03:49:58;;;;;;;16.60;13.05;;;;;;;15.37;84.06;98345.44;4184676;28;20051;-71
2021/09/10 03:51:59;;;;;;;17.35;12.60;;;;;;;15.34;84.00;98339.91;4182697;28;20063;-71
2021/09/10 03:53:59;;;;;;;18.20;14.60;;;;;;;15.30;85.11;98339.16;4183762;28;20055;-71
2021/09/10 03:55:59;;;;;;;17.65;15.15;;;;;;;15.30;84.93;98339.16;4184103;28;20113;-71
2021/09/10 03:58:00;;;;;;;18.40;14.88;;;;;;;15.30;85.72;98350.28;4186193;28;20311;-71
2021/09/10 04:00:00;;;;;;;15.85;13.13;;;;;;;15.29;84.90;98354.28;4183713;28;20048;-71
2021/09/10 04:02:00;;;;;;;16.35;14.30;;;;;;;15.26;85.39;98350.34;4184221;28;20057;-71
2021/09/10 04:04:01;;;;;;;14.65;11.63;;;;;;;15.29;83.77;98357.06;4185177;28;20029;-71
2021/09/10 04:06:01;;;;;;;18.08;14.23;;;;;;;15.29;84.35;98357.06;4182561;28;20426;-71
2021/09/10 04:08:03;;;;;;;18.05;15.07;;;;;;;15.30;84.88;98355.88;4184175;28;20459;-71
2021/09/10 04:10:04;;;;;;;18.35;15.48;;;;;;;15.30;84.28;98362.25;4183616;28;20032;-71
2021/09/10 04:12:05;;;;;;;18.50;13.65;;;;;;;15.28;83.25;98342.34;4182021;28;20173;-71
2021/09/10 04:14:05;;;;;;;21.42;15.25;;;;;;;15.37;83.50;98358.59;4183963;28;20055;-71
2021/09/10 04:16:06;;;;;;;22.77;16.95;;;;;;;15.32;85.85;98359.84;4183726;28;20040;-71
2021/09/10 04:18:06;;;;;;;16.70;14.52;;;;;;;15.24;85.87;98343.59;4184271;28;20035;-71
2021/09/10 04:20:07;;;;;;;18.83;14.30;;;;;;;15.23;86.40;98361.53;4184998;28;20032;-71
2021/09/10 04:22:08;;;;;;;21.15;14.75;;;;;;;15.27;86.32;98371.44;4182866;28;20030;-71
2021/09/10 04:24:08;;;;;;;16.45;13.20;;;;;;;15.27;86.11;98376.22;4184219;28;20036;-71
2021/09/10 04:26:08;;;;;;;18.30;13.00;;;;;;;15.27;84.94;98367.84;4182336;28;20053;-71
2021/09/10 04:28:10;;;;;;;18.98;14.02;;;;;;;15.29;84.39;98363.44;4182113;28;20040;-71
2021/09/10 04:30:10;;;;;;;20.00;15.82;;;;;;;15.31;85.68;98361.06;4182993;28;20461;-71
2021/09/10 04:32:11;;;;;;;19.38;14.20;;;;;;;15.34;84.29;98373.38;4184011;28;20036;-71
2021/09/10 04:34:11;;;;;;;18.33;13.77;;;;;;;15.39;83.88;98370.94;4182747;28;20067;-71
2021/09/10 04:36:12;;;;;;;26.23;18.10;;;;;;;15.35;86.81;98374.94;4183950;28;20343;-71
2021/09/10 04:38:13;;;;;;;16.63;14.10;;;;;;;15.35;85.47;98369.38;4183791;28;20048;-71
2021/09/10 04:40:13;;;;;;;18.27;13.55;;;;;;;15.37;85.18;98370.53;4182310;28;20148;-71
2021/09/10 04:42:14;;;;;;;17.15;14.75;;;;;;;15.42;85.69;98372.88;4183024;28;20294;-71
2021/09/10 04:44:14;;;;;;;22.27;14.23;;;;;;;15.42;85.92;98378.47;4182502;28;20036;-71
2021/09/10 04:46:14;;;;;;;15.23;12.40;;;;;;;15.42;84.27;98372.09;4185438;28;21267;-71
2021/09/10 04:48:15;;;;;;;20.50;14.88;;;;;;;15.45;84.60;98380.41;4184828;28;20028;-71
2021/09/10 04:50:15;;;;;;;18.98;14.75;;;;;;;15.44;85.69;98378.03;4186237;28;20040;-71
2021/09/10 04:52:15;;;;;;;14.85;12.77;;;;;;;15.41;86.30;98378.88;4185201;28;20032;-71
2021/09/10 04:54:16;;;;;;;17.35;14.18;;;;;;;15.41;86.67;98373.31;4185456;28;20037;-71
2021/09/10 04:56:16;;;;;;;17.65;14.27;;;;;;;15.40;86.43;98389.25;4186465;28;20036;-71
2021/09/10 04:58:17;;;;;;;20.33;14.07;;;;;;;15.38;86.61;98379.69;4185440;28;20410;-71
2021/09/10 05:00:17;;;;;;;19.88;16.25;;;;;;;15.35;87.04;98386.88;4185907;28;20043;-71
2021/09/10 05:02:18;;;;;;;17.13;14.55;;;;;;;15.37;86.16;98380.91;4184506;28;20028;-71
2021/09/10 05:04:18;;;;;;;19.05;15.38;;;;;;;15.39;85.88;98381.28;4186245;28;20025;-71
2021/09/10 05:06:19;;;;;;;18.73;14.15;;;;;;;15.40;86.18;98378.09;4185305;28;20492;-71
2021/09/10 05:08:19;;;;;;;19.48;15.15;;;;;;;15.41;85.43;98381.66;4182799;28;20041;-71
2021/09/10 05:10:19;;;;;;;22.02;15.57;;;;;;;15.42;86.19;98383.25;4184265;28;20028;-71
2021/09/10 05:12:20;;;;;;;21.05;15.68;;;;;;;15.43;86.82;98384.84;4183961;28;20039;-71
2021/09/10 05:14:20;;;;;;;19.55;15.25;;;;;;;15.43;86.94;98376.47;4183978;28;20048;-71
2021/09/10 05:16:21;;;;;;;23.80;15.88;;;;;;;15.45;87.03;98383.19;4184320;28;20384;-71
2021/09/10 05:18:21;;;;;;;20.85;13.98;;;;;;;15.49;86.31;98382.41;4184097;28;20120;-71
2021/09/10 05:20:21;;;;;;;20.52;15.80;;;;;;;15.48;86.26;98380.81;4184949;28;20045;-71
2021/09/10 05:22:22;;;;;;;18.27;14.63;;;;;;;15.52;86.24;98387.13;4183692;28;20384;-71
2021/09/10 05:24:22;;;;;;;20.38;14.50;;;;;;;15.53;86.05;98388.72;4184766;28;20051;-71
2021/09/10 05:26:22;;;;;;;17.63;14.32;;;;;;;15.55;85.84;98391.88;4185064;28;20070;-71
2021/09/10 05:28:23;;;;;;;21.83;15.77;;;;;;;15.55;85.80;98392.66;4185864;28;20048;-71
2021/09/10 05:30:23;;;;;;;17.58;14.32;;;;;;;15.56;84.28;98385.91;4186183;28;20452;-71
2021/09/10 05:32:24;;;;;;;17.08;13.60;;;;;;;15.58;83.77;98389.06;4184232;28;20216;-71
2021/09/10 05:34:25;;;;;;;18.60;14.20;;;;;;;15.61;84.32;98398.63;4184967;28;20044;-71
2021/09/10 05:36:25;;;;;;;20.85;15.38;;;;;;;15.65;84.92;98396.59;4185844;28;20051;-71
2021/09/10 05:38:26;;;;;;;16.88;13.48;;;;;;;15.64;84.78;98392.25;4184711;28;20043;-71
2021/09/10 05:40:26;;;;;;;14.75;12.73;;;;;;;15.69;84.81;98414.09;4185531;28;20043;-71
2021/09/10 05:42:27;;;;;;;23.20;16.00;;;;;;;15.71;86.25;98412.47;4185055;28;20102;-71
2021/09/10 05:44:27;;;;;;;17.13;14.38;;;;;;;15.71;86.08;98408.88;4184671;28;20047;-71
2021/09/10 05:46:27;;;;;;;18.13;12.93;;;;;;;15.73;84.47;98403.69;4185205;28;20197;-71
2021/09/10 05:48:28;;;;;;;17.30;13.90;;;;;;;15.78;84.87;98408.03;4184904;28;20048;-71
2021/09/10 05:50:28;;;;;;;18.00;14.95;;;;;;;15.82;85.55;98412.38;4184110;28;20464;-71
2021/09/10 05:52:28;;;;;;;19.15;15.18;;;;;;;15.80;86.21;98406.38;4185313;28;20036;-71
2021/09/10 05:54:29;;;;;;;17.80;14.65;;;;;;;15.87;86.29;98416.69;4185431;28;20041;-71
2021/09/10 05:56:29;;;;;;;18.50;14.18;;;;;;;15.91;85.90;98423.81;4185608;28;20037;-71
2021/09/10 05:58:30;;;;;;;19.45;13.35;;;;;;;15.96;86.02;98416.97;4185392;28;20404;-71
2021/09/10 06:00:30;;;;;;;16.30;12.77;;;;;;;16.02;85.64;98420.91;4185619;28;20438;-71
2021/09/10 06:02:30;;;;;;;19.08;13.40;;;;;;;16.08;84.83;98424.84;4184821;28;20048;-71
2021/09/10 06:04:31;;;;;;;14.82;11.80;;;;;;;16.13;84.47;98413.19;4183636;28;20089;-71
2021/09/10 06:06:31;;;;;;;16.02;13.00;;;;;;;16.19;84.39;98417.13;4185888;28;20078;-71
2021/09/10 06:08:31;;;;;;;15.52;12.60;;;;;;;16.27;84.70;98415.03;4183928;28;20032;-71
2021/09/10 06:10:32;;;;;;;18.20;13.93;;;;;;;16.33;84.53;98426.53;4184687;28;20798;-71
2021/09/10 06:12:32;;;;;;;13.70;11.82;;;;;;;16.36;83.61;98423.69;4184163;28;20102;-71
2021/09/10 06:14:33;;;;;;;14.43;11.07;;;;;;;16.39;83.20;98419.28;4183861;28;20052;-71
2021/09/10 06:16:34;;;;;;;14.63;12.45;;;;;;;16.45;83.38;98420.38;4185566;28;20044;-71
2021/09/10 06:18:35;;;;;;;14.38;12.50;;;;;;;16.53;84.47;98427.47;4186663;27;20032;-71
2021/09/10 06:20:35;;;;;;;16.10;13.20;;;;;;;16.58;83.31;98422.22;4183962;28;20445;-71
2021/09/10 06:22:35;;;;;;;17.15;13.27;;;;;;;16.68;84.07;98420.47;4184813;28;20051;-71
2021/09/10 06:24:37;;;;;;;17.23;13.60;;;;;;;16.76;84.26;98410.03;4184376;28;20047;-71
2021/09/10 06:26:37;;;;;;;17.33;14.68;;;;;;;16.85;84.86;98415.88;4184221;28;20052;-71
2021/09/10 06:28:37;;;;;;;15.57;13.48;;;;;;;16.91;83.83;98414.19;4184947;28;20041;-71
2021/09/10 06:30:38;;;;;;;19.73;13.98;;;;;;;17.00;83.31;98424.84;4185115;28;20037;-71
2021/09/10 06:32:38;;;;;;;17.15;11.95;;;;;;;17.08;83.19;98420.72;4182814;28;20515;-71
2021/09/10 06:34:39;;;;;;;19.63;12.25;;;;;;;17.16;81.13;98424.22;4185021;28;20500;-71
2021/09/10 06:36:39;;;;;;;16.38;12.65;;;;;;;17.25;81.37;98416.84;4187802;28;20041;-71
2021/09/10 06:38:39;;;;;;;24.20;12.98;;;;;;;17.32;82.38;98419.53;4187393;28;20041;-71
2021/09/10 06:40:40;;;;;;;13.65;11.80;;;;;;;17.38;82.17;98426.25;4186572;28;20041;-71
2021/09/10 06:42:41;;;;;;;19.73;13.60;;;;;;;17.53;82.73;98423.97;4187619;28;20078;-71
2021/09/10 06:44:42;;;;;;;17.15;13.32;;;;;;;17.67;82.28;98431.34;4188479;28;20080;-71
2021/09/10 06:46:42;;;;;;;19.17;12.75;;;;;;;17.75;81.70;98423.63;4187582;28;20036;-71
2021/09/10 06:48:43;;;;;;;20.20;16.30;;;;;;;17.82;82.10;98420.72;4187044;28;20068;-71
2021/09/10 06:50:43;;;;;;;21.15;16.33;;;;;;;17.88;81.75;98424.59;4188246;28;20143;-71
2021/09/10 06:52:44;;;;;;;20.05;14.00;;;;;;;17.92;81.20;98423.31;4187125;28;20326;-71
2021/09/10 06:54:44;;;;;;;19.25;14.52;;;;;;;17.99;81.92;98430.78;4188358;28;20059;-71
2021/09/10 06:56:45;;;;;;;18.17;14.23;;;;;;;18.08;81.51;98430.22;4187750;28;20052;-71
2021/09/10 06:58:45;;;;;;;21.08;16.00;;;;;;;18.17;81.61;98430.44;4187182;28;20032;-71
2021/09/10 07:00:46;;;;;;;16.65;14.15;;;;;;;18.21;81.52;98423.56;4187907;28;20495;-71
2021/09/10 07:02:46;;;;;;;16.27;13.25;;;;;;;18.26;81.39;98430.66;4186390;28;20464;-71
2021/09/10 07:04:46;;;;;;;18.58;12.57;;;;;;;18.29;81.40;98434.59;4186696;28;20043;-71
2021/09/10 07:06:47;;;;;;;15.02;12.05;;;;;;;18.32;81.33;98431.72;4187975;28;20083;-71
2021/09/10 07:08:47;;;;;;;19.48;11.05;;;;;;;18.38;80.41;98432.81;4187656;28;20040;-71
2021/09/10 07:10:48;;;;;;;16.08;11.77;;;;;;;18.41;80.44;98433.94;4186762;28;20468;-71
2021/09/10 07:12:48;;;;;;;14.45;12.95;;;;;;;18.46;80.22;98436.25;4187152;28;20040;-71
2021/09/10 07:14:48;;;;;;;14.77;11.88;;;;;;;18.47;80.68;98444.22;4187615;28;20219;-71
2021/09/10 07:16:49;;;;;;;18.00;12.20;;;;;;;18.49;80.86;98452.97;4187137;28;20059;-71
2021/09/10 07:18:49;;;;;;;18.65;14.63;;;;;;;18.51;81.03;98438.53;4188343;28;20384;-71
2021/09/10 07:20:49;;;;;;;21.75;16.88;;;;;;;18.54;80.96;98454.50;4187289;28;20039;-71
2021/09/10 07:22:50;;;;;;;20.45;15.30;;;;;;;18.58;81.06;98454.41;4187778;28;20082;-71
2021/09/10 07:24:50;;;;;;;19.42;14.32;;;;;;;18.57;80.84;98442.41;4186736;28;20373;-71
2021/09/10 07:26:51;;;;;;;17.30;13.57;;;;;;;18.63;80.58;98448.31;4187339;28;20060;-71
2021/09/10 07:28:52;;;;;;;17.52;12.13;;;;;;;18.68;80.44;98454.22;4187357;28;20059;-71
2021/09/10 07:30:52;;;;;;;18.67;13.50;;;;;;;18.74;80.50;98458.09;4185437;28;20040;-71
2021/09/10 07:32:52;;;;;;;18.30;13.13;;;;;;;18.84;80.13;98461.09;4188004;28;20059;-71
2021/09/10 07:34:53;;;;;;;17.40;13.07;;;;;;;18.89;79.91;98464.19;4187468;28;20035;-71
2021/09/10 07:36:53;;;;;;;14.23;12.00;;;;;;;18.97;79.37;98468.41;4186970;28;20455;-71
2021/09/10 07:38:54;;;;;;;18.10;12.18;;;;;;;19.03;78.79;98452.66;4186098;28;20172;-71
2021/09/10 07:40:54;;;;;;;17.88;12.23;;;;;;;19.07;78.76;98456.16;4185762;28;20049;-71
2021/09/10 07:42:54;;;;;;;13.32;11.40;;;;;;;19.16;78.62;98463.97;4186733;28;20471;-71
2021/09/10 07:44:55;;;;;;;14.23;11.75;;;;;;;19.21;79.02;98460.66;4187189;28;20044;-71
2021/09/10 07:46:55;;;;;;;14.10;12.65;;;;;;;19.28;77.94;98465.28;4186368;28;20476;-71
2021/09/10 07:48:56;;;;;;;15.63;12.65;;;;;;;19.33;78.64;98462.75;4187335;28;20396;-71
2021/09/10 07:50:56;;;;;;;17.33;12.35;;;;;;;19.38;77.89;98461.44;4185067;28;20040;-71
2021/09/10 07:52:57;;;;;;;14.35;12.05;;;;;;;19.44;77.14;98458.88;4187857;28;20357;-71
2021/09/10 07:54:57;;;;;;;13.43;11.68;;;;;;;19.48;76.73;98462.41;4186036;28;20443;-71
2021/09/10 07:56:57;;;;;;;16.55;11.38;;;;;;;19.62;76.48;98474.09;4187129;28;20036;-71
2021/09/10 07:58:58;;;;;;;15.15;10.27;;;;;;;19.71;75.78;98475.50;4186563;28;20070;-71
2021/09/10 08:00:58;;;;;;;13.40;10.63;;;;;;;19.89;74.69;98475.84;4185622;28;20040;-71
2021/09/10 08:02:59;;;;;;;11.85;10.65;;;;;;;19.93;74.02;98468.09;4186563;28;20475;-71
2021/09/10 08:05:01;;;;;;;13.77;11.05;;;;;;;19.92;73.36;98472.13;4185840;28;20213;-71
2021/09/10 08:07:01;;;;;;;14.20;10.63;;;;;;;19.88;73.48;98475.03;4185316;28;20226;-71
2021/09/10 08:09:02;;;;;;;11.32;9.95;;;;;;;19.91;73.39;98471.34;4186395;28;20472;-71
2021/09/10 08:11:04;;;;;;;13.15;10.10;;;;;;;19.94;73.25;98469.66;4185893;28;20036;-71
2021/09/10 08:13:04;;;;;;;11.10;9.98;;;;;;;19.95;73.39;98478.91;4186146;28;20775;-71
2021/09/10 08:15:05;;;;;;;18.95;16.80;;;;;;;19.97;73.48;98477.22;4186104;28;20049;-71
2021/09/10 08:17:05;;;;;;;17.13;13.95;;;;;;;20.00;73.84;98478.34;4186600;28;20049;-71
2021/09/10 08:19:06;;;;;;;12.63;10.68;;;;;;;20.00;73.37;98481.16;4186371;28;20048;-71
2021/09/10 08:21:06;;;;;;;11.25;9.95;;;;;;;20.02;72.19;98482.28;4175931;28;20574;-71
2021/09/10 08:23:07;;;;;;;15.57;11.30;;;;;;;20.08;72.81;98486.16;4160395;28;20374;-71
2021/09/10 08:25:08;;;;;;;14.68;10.77;;;;;;;20.06;72.28;98485.03;4151401;28;20037;-71
2021/09/10 08:27:08;;;;;;;16.73;10.65;;;;;;;20.06;71.84;98494.22;4153478;28;20469;-71
2021/09/10 08:29:09;;;;;;;15.20;10.98;;;;;;;20.02;72.25;98490.72;4152429;28;20049;-71
2021/09/10 08:31:09;;;;;;;21.02;14.60;;;;;;;19.99;72.26;98494.41;4152041;28;20579;-71
2021/09/10 08:33:10;;;;;;;19.20;14.55;;;;;;;19.95;73.23;98499.34;4152575;28;20068;-71
2021/09/10 08:35:11;;;;;;;33.08;21.05;;;;;;;19.93;73.27;98493.38;4154121;28;20435;-71
2021/09/10 08:37:11;;;;;;;34.92;22.17;;;;;;;19.94;72.74;98497.75;4153800;28;20060;-71
2021/09/10 08:39:11;;;;;;;26.58;18.60;;;;;;;19.93;72.83;98498.97;4152560;28;20109;-71
2021/09/10 08:41:12;;;;;;;17.13;12.50;;;;;;;19.90;70.79;98497.84;4152352;28;20131;-71
2021/09/10 08:43:13;;;;;;;28.25;20.08;;;;;;;19.95;70.18;98507.78;4135500;28;20532;-71
2021/09/10 08:45:17;;;;;;;30.10;19.40;;;;;;;19.93;70.20;98505.38;4153048;28;20578;-71
2021/09/10 08:47:18;;;;;;;18.52;14.00;;;;;;;19.88;69.78;98494.69;4151838;28;20081;-71
2021/09/10 08:49:18;;;;;;;30.38;20.65;;;;;;;19.86;69.63;98497.16;4148607;28;20412;-71
2021/09/10 08:51:18;;;;;;;46.17;28.05;;;;;;;19.83;70.14;98494.44;4160715;28;20065;-71
2021/09/10 08:53:19;;;;;;;32.67;21.00;;;;;;;19.81;70.22;98494.09;4170001;28;20044;-71
2021/09/10 08:55:19;;;;;;;32.03;20.15;;;;;;;19.81;70.48;98499.69;4169537;28;20052;-71
2021/09/10 08:57:20;;;;;;;48.08;28.75;;;;;;;19.79;70.29;98497.34;4168616;28;20442;-71
2021/09/10 08:59:20;;;;;;;40.08;26.25;;;;;;;19.80;70.54;98500.94;4166820;28;20045;-71
2021/09/10 09:01:21;;;;;;;39.20;27.40;;;;;;;19.79;70.52;98494.53;4167472;28;20466;-71
2021/09/10 09:03:21;;;;;;;42.60;27.52;;;;;;;19.79;70.96;98502.16;4169810;28;20076;-71
2021/09/10 09:05:25;;;;;;;36.42;24.98;;;;;;;19.83;70.97;98508.47;4151107;28;20389;-71
2021/09/10 09:07:27;;;;;;;35.47;24.15;;;;;;;19.92;71.18;98500.22;4167707;28;20094;-71
2021/09/10 09:09:41;;;;;;;17.73;13.10;;;;;;;20.24;68.81;98501.38;4169230;28;20049;-71
2021/09/10 09:11:42;;;;;;;13.20;9.60;;;;;;;20.51;68.12;98498.25;4167834;28;20044;-71
2021/09/10 09:13:44;;;;;;;13.93;10.10;;;;;;;20.61;67.63;98500.00;4168916;28;20094;-71